sensor_id;sensor_type;location;lat;lon;timestamp;pressure;altitude;pressure_sealevel;temperature;humidity
46690;BME280;32423;45.398;10.874;2023-04-09T00:01:51;101122.97;;;12.95;64.76
46690;BME280;32423;45.398;10.874;2023-04-09T00:04:43;101117.66;;;12.99;64.59
46690;BME280;32423;45.398;10.874;2023-04-09T00:07:35;101122.16;;;12.95;64.83
46690;BME280;32423;45.398;10.874;2023-04-09T00:10:27;101115.41;;;13.01;64.51
46690;BME280;32423;45.398;10.874;2023-04-09T00:13:19;101119.09;;;12.96;65.07
46690;BME280;32423;45.398;10.874;2023-04-09T00:16:11;101119.56;;;13.07;64.39
46690;BME280;32423;45.398;10.874;2023-04-09T00:19:01;101118.31;;;13.13;64.67
46690;BME280;32423;45.398;10.874;2023-04-09T00:21:52;101122.81;;;13.09;65.33
46690;BME280;32423;45.398;10.874;2023-04-09T00:24:44;101123.91;;;13.08;65.84
46690;BME280;32423;45.398;10.874;2023-04-09T00:27:36;101119.56;;;13.07;64.43
46690;BME280;32423;45.398;10.874;2023-04-09T00:30:29;101119.56;;;13.07;64.89
46690;BME280;32423;45.398;10.874;2023-04-09T00:33:21;101127.28;;;12.96;65.19
46690;BME280;32423;45.398;10.874;2023-04-09T00:36:13;101121.00;;;12.96;65.16
46690;BME280;32423;45.398;10.874;2023-04-09T00:39:04;101127.47;;;13.00;64.54
46690;BME280;32423;45.398;10.874;2023-04-09T00:41:57;101117.81;;;13.11;63.84
46690;BME280;32423;45.398;10.874;2023-04-09T00:44:50;101118.63;;;13.11;63.71
46690;BME280;32423;45.398;10.874;2023-04-09T00:47:42;101129.75;;;13.15;64.12
46690;BME280;32423;45.398;10.874;2023-04-09T00:50:34;101128.72;;;13.11;63.34
46690;BME280;32423;45.398;10.874;2023-04-09T00:53:26;101127.63;;;12.95;63.76
46690;BME280;32423;45.398;10.874;2023-04-09T00:56:19;101127.13;;;12.93;63.78
46690;BME280;32423;45.398;10.874;2023-04-09T00:59:12;101126.47;;;12.87;63.58
46690;BME280;32423;45.398;10.874;2023-04-09T01:02:04;101124.25;;;12.89;61.88
46690;BME280;32423;45.398;10.874;2023-04-09T01:04:56;101121.66;;;12.93;61.76
46690;BME280;32423;45.398;10.874;2023-04-09T01:11:03;101124.41;;;12.84;61.52
46690;BME280;32423;45.398;10.874;2023-04-09T01:14:02;101124.56;;;12.79;62.36
46690;BME280;32423;45.398;10.874;2023-04-09T01:16:55;101130.81;;;12.79;61.83
46690;BME280;32423;45.398;10.874;2023-04-09T01:19:55;101126.63;;;12.82;61.58
46690;BME280;32423;45.398;10.874;2023-04-09T01:29:20;101139.78;;;12.80;62.25
46690;BME280;32423;45.398;10.874;2023-04-09T01:32:14;101144.63;;;12.74;62.21
46690;BME280;32423;45.398;10.874;2023-04-09T01:35:04;101145.25;;;12.71;62.71
46690;BME280;32423;45.398;10.874;2023-04-09T01:37:57;101145.91;;;12.68;63.42
46690;BME280;32423;45.398;10.874;2023-04-09T01:40:51;101143.31;;;12.63;63.42
46690;BME280;32423;45.398;10.874;2023-04-09T01:43:43;101142.06;;;12.69;63.34
46690;BME280;32423;45.398;10.874;2023-04-09T01:46:36;101142.19;;;12.64;63.83
46690;BME280;32423;45.398;10.874;2023-04-09T01:49:29;101143.47;;;12.58;64.45
46690;BME280;32423;45.398;10.874;2023-04-09T01:52:20;101142.34;;;12.59;63.88
46690;BME280;32423;45.398;10.874;2023-04-09T01:55:12;101138.31;;;12.57;64.01
46690;BME280;32423;45.398;10.874;2023-04-09T01:58:04;101146.66;;;12.60;64.17
46690;BME280;32423;45.398;10.874;2023-04-09T02:00:53;101147.97;;;12.54;64.42
46690;BME280;32423;45.398;10.874;2023-04-09T02:03:50;101145.69;;;12.56;63.96
46690;BME280;32423;45.398;10.874;2023-04-09T02:09:37;101152.59;;;12.54;63.68
46690;BME280;32423;45.398;10.874;2023-04-09T02:12:29;101157.09;;;12.58;63.29
46690;BME280;32423;45.398;10.874;2023-04-09T02:15:22;101151.66;;;12.58;62.83
46690;BME280;32423;45.398;10.874;2023-04-09T02:18:25;101151.63;;;12.50;62.97
46690;BME280;32423;45.398;10.874;2023-04-09T02:21:15;101154.53;;;12.53;62.59
46690;BME280;32423;45.398;10.874;2023-04-09T02:24:07;101153.06;;;12.56;63.19
46690;BME280;32423;45.398;10.874;2023-04-09T02:26:59;101151.16;;;12.65;62.82
46690;BME280;32423;45.398;10.874;2023-04-09T02:29:52;101162.59;;;12.75;62.59
46690;BME280;32423;45.398;10.874;2023-04-09T02:32:46;101157.47;;;12.82;62.33
46690;BME280;32423;45.398;10.874;2023-04-09T02:35:38;101160.50;;;12.81;62.39
46690;BME280;32423;45.398;10.874;2023-04-09T02:38:30;101167.22;;;12.58;63.66
46690;BME280;32423;45.398;10.874;2023-04-09T02:41:21;101163.19;;;12.55;64.29
46690;BME280;32423;45.398;10.874;2023-04-09T02:44:13;101159.97;;;12.53;64.23
46690;BME280;32423;45.398;10.874;2023-04-09T02:47:05;101163.19;;;12.55;63.95
46690;BME280;32423;45.398;10.874;2023-04-09T02:49:57;101159.50;;;12.51;64.66
46690;BME280;32423;45.398;10.874;2023-04-09T02:52:50;101168.16;;;12.53;64.58
46690;BME280;32423;45.398;10.874;2023-04-09T02:55:42;101153.84;;;12.39;64.29
46690;BME280;32423;45.398;10.874;2023-04-09T02:58:33;101153.53;;;12.40;65.03
46690;BME280;32423;45.398;10.874;2023-04-09T03:01:23;101147.63;;;12.56;65.22
46690;BME280;32423;45.398;10.874;2023-04-09T03:04:14;101161.59;;;12.54;65.86
46690;BME280;32423;45.398;10.874;2023-04-09T03:07:06;101158.03;;;12.45;64.95
46690;BME280;32423;45.398;10.874;2023-04-09T03:09:56;101161.25;;;12.47;65.32
46690;BME280;32423;45.398;10.874;2023-04-09T03:12:48;101161.41;;;12.42;65.47
46690;BME280;32423;45.398;10.874;2023-04-09T03:15:37;101154.31;;;12.41;65.42
46690;BME280;32423;45.398;10.874;2023-04-09T03:18:29;101157.06;;;12.41;65.91
46690;BME280;32423;45.398;10.874;2023-04-09T03:21:21;101153.19;;;12.33;66.47
46690;BME280;32423;45.398;10.874;2023-04-09T03:24:14;101152.38;;;12.33;66.30
46690;BME280;32423;45.398;10.874;2023-04-09T03:27:06;101154.47;;;12.36;65.17
46690;BME280;32423;45.398;10.874;2023-04-09T03:29:58;101158.00;;;12.36;65.85
46690;BME280;32423;45.398;10.874;2023-04-09T03:32:55;101151.88;;;12.31;65.78
46690;BME280;32423;45.398;10.874;2023-04-09T03:35:48;101157.03;;;12.32;66.05
46690;BME280;32423;45.398;10.874;2023-04-09T03:38:43;101161.22;;;12.38;65.79
46690;BME280;32423;45.398;10.874;2023-04-09T03:41:43;101155.59;;;12.35;66.65
46690;BME280;32423;45.398;10.874;2023-04-09T03:44:35;101150.75;;;12.23;67.15
46690;BME280;32423;45.398;10.874;2023-04-09T03:47:26;101160.03;;;12.22;66.70
46690;BME280;32423;45.398;10.874;2023-04-09T03:50:16;101154.75;;;12.26;66.47
46690;BME280;32423;45.398;10.874;2023-04-09T03:53:10;101148.63;;;12.20;66.26
46690;BME280;32423;45.398;10.874;2023-04-09T03:55:59;101148.34;;;12.30;66.73
46690;BME280;32423;45.398;10.874;2023-04-09T03:58:53;101148.84;;;12.24;66.54
46690;BME280;32423;45.398;10.874;2023-04-09T04:01:52;101156.00;;;12.20;66.86
46690;BME280;32423;45.398;10.874;2023-04-09T04:04:44;101149.13;;;12.22;66.71
46690;BME280;32423;45.398;10.874;2023-04-09T04:07:36;101150.22;;;12.13;66.87
46690;BME280;32423;45.398;10.874;2023-04-09T04:10:33;101154.84;;;12.04;67.37
46690;BME280;32423;45.398;10.874;2023-04-09T04:13:25;101154.34;;;12.02;67.22
46690;BME280;32423;45.398;10.874;2023-04-09T04:16:17;101152.13;;;12.04;67.77
46690;BME280;32423;45.398;10.874;2023-04-09T04:19:10;101152.44;;;12.11;67.19
46690;BME280;32423;45.398;10.874;2023-04-09T04:22:05;101164.97;;;12.12;66.86
46690;BME280;32423;45.398;10.874;2023-04-09T04:24:58;101160.94;;;12.09;66.88
46690;BME280;32423;45.398;10.874;2023-04-09T04:27:50;101161.75;;;12.10;66.92
46690;BME280;32423;45.398;10.874;2023-04-09T04:30:43;101163.84;;;12.13;66.73
46690;BME280;32423;45.398;10.874;2023-04-09T04:33:35;101163.34;;;12.11;66.82
46690;BME280;32423;45.398;10.874;2023-04-09T04:36:30;101165.63;;;12.09;66.79
46690;BME280;32423;45.398;10.874;2023-04-09T04:39:22;101175.50;;;12.05;66.96
46690;BME280;32423;45.398;10.874;2023-04-09T04:42:20;101185.75;;;11.99;67.53
46690;BME280;32423;45.398;10.874;2023-04-09T04:45:10;101184.03;;;12.03;67.61
46690;BME280;32423;45.398;10.874;2023-04-09T04:48:12;101180.63;;;11.97;67.33
46690;BME280;32423;45.398;10.874;2023-04-09T04:51:04;101182.72;;;12.00;68.17
46690;BME280;32423;45.398;10.874;2023-04-09T04:53:58;101186.69;;;11.94;68.03
46690;BME280;32423;45.398;10.874;2023-04-09T04:56:50;101181.84;;;11.83;68.67
46690;BME280;32423;45.398;10.874;2023-04-09T05:00:00;101193.00;;;12.04;67.93
46690;BME280;32423;45.398;10.874;2023-04-09T05:02:52;101184.88;;;12.12;67.42
46690;BME280;32423;45.398;10.874;2023-04-09T05:05:43;101184.34;;;12.10;67.10
46690;BME280;32423;45.398;10.874;2023-04-09T05:08:35;101195.09;;;12.07;67.69
46690;BME280;32423;45.398;10.874;2023-04-09T05:11:27;101195.63;;;12.17;66.77
46690;BME280;32423;45.398;10.874;2023-04-09T05:14:17;101206.38;;;12.14;66.91
46690;BME280;32423;45.398;10.874;2023-04-09T05:17:05;101208.59;;;12.12;67.22
46690;BME280;32423;45.398;10.874;2023-04-09T05:20:02;101215.19;;;12.19;67.05
46690;BME280;32423;45.398;10.874;2023-04-09T05:23:18;101212.53;;;12.28;66.48
46690;BME280;32423;45.398;10.874;2023-04-09T05:26:10;101214.13;;;12.29;65.26
46690;BME280;32423;45.398;10.874;2023-04-09T05:29:13;101212.97;;;12.21;66.25
46690;BME280;32423;45.398;10.874;2023-04-09T05:32:05;101207.94;;;12.15;66.35
46690;BME280;32423;45.398;10.874;2023-04-09T05:34:57;101208.56;;;12.03;65.87
46690;BME280;32423;45.398;10.874;2023-04-09T05:37:50;101208.22;;;12.05;66.04
46690;BME280;32423;45.398;10.874;2023-04-09T05:40:42;101203.63;;;12.14;65.70
46690;BME280;32423;45.398;10.874;2023-04-09T05:43:34;101206.69;;;12.21;65.30
46690;BME280;32423;45.398;10.874;2023-04-09T05:46:26;101215.38;;;12.23;65.69
46690;BME280;32423;45.398;10.874;2023-04-09T05:49:18;101222.53;;;12.10;65.09
46690;BME280;32423;45.398;10.874;2023-04-09T05:52:10;101211.97;;;12.09;64.76
46690;BME280;32423;45.398;10.874;2023-04-09T05:55:02;101217.88;;;12.11;64.30
46690;BME280;32423;45.398;10.874;2023-04-09T05:58:12;101213.91;;;12.17;63.60
46690;BME280;32423;45.398;10.874;2023-04-09T06:01:04;101222.94;;;12.26;62.87
46690;BME280;32423;45.398;10.874;2023-04-09T06:03:53;101221.81;;;12.27;62.30
46690;BME280;32423;45.398;10.874;2023-04-09T06:06:48;101221.78;;;12.18;62.53
46690;BME280;32423;45.398;10.874;2023-04-09T06:09:40;101226.19;;;12.36;61.90
46690;BME280;32423;45.398;10.874;2023-04-09T06:12:32;101232.94;;;12.39;61.47
46690;BME280;32423;45.398;10.874;2023-04-09T06:15:23;101232.59;;;12.32;61.19
46690;BME280;32423;45.398;10.874;2023-04-09T06:18:15;101227.91;;;12.24;61.23
46690;BME280;32423;45.398;10.874;2023-04-09T06:21:09;101234.53;;;12.40;60.36
46690;BME280;32423;45.398;10.874;2023-04-09T06:24:01;101237.91;;;12.37;59.94
46690;BME280;32423;45.398;10.874;2023-04-09T06:26:53;101244.97;;;12.38;59.77
46690;BME280;32423;45.398;10.874;2023-04-09T06:29:45;101239.25;;;12.48;58.94
46690;BME280;32423;45.398;10.874;2023-04-09T06:32:34;101240.06;;;12.57;59.25
46690;BME280;32423;45.398;10.874;2023-04-09T06:35:26;101241.63;;;12.50;57.73
46690;BME280;32423;45.398;10.874;2023-04-09T06:38:16;101240.09;;;12.66;57.74
46690;BME280;32423;45.398;10.874;2023-04-09T06:41:07;101243.97;;;12.73;57.17
46690;BME280;32423;45.398;10.874;2023-04-09T06:43:59;101245.75;;;12.69;57.52
46690;BME280;32423;45.398;10.874;2023-04-09T06:46:51;101248.63;;;12.64;56.32
46690;BME280;32423;45.398;10.874;2023-04-09T06:49:41;101249.72;;;12.63;56.40
46690;BME280;32423;45.398;10.874;2023-04-09T06:52:33;101255.88;;;12.77;56.76
46690;BME280;32423;45.398;10.874;2023-04-09T06:55:25;101260.53;;;12.85;56.02
46690;BME280;32423;45.398;10.874;2023-04-09T06:58:17;101261.81;;;12.79;55.27
46690;BME280;32423;45.398;10.874;2023-04-09T07:01:09;101265.81;;;12.73;55.50
46690;BME280;32423;45.398;10.874;2023-04-09T07:03:58;101272.75;;;12.79;55.25
46690;BME280;32423;45.398;10.874;2023-04-09T07:06:50;101269.28;;;12.57;55.19
46690;BME280;32423;45.398;10.874;2023-04-09T07:09:42;101266.56;;;12.65;55.31
46690;BME280;32423;45.398;10.874;2023-04-09T07:12:32;101271.75;;;12.75;55.61
46690;BME280;32423;45.398;10.874;2023-04-09T07:15:24;101273.34;;;12.76;55.30
46690;BME280;32423;45.398;10.874;2023-04-09T07:18:16;101277.56;;;12.82;53.91
46690;BME280;32423;45.398;10.874;2023-04-09T07:21:08;101271.31;;;12.91;54.82
46690;BME280;32423;45.398;10.874;2023-04-09T07:24:00;101276.47;;;13.01;53.46
46690;BME280;32423;45.398;10.874;2023-04-09T07:26:52;101279.50;;;12.91;52.85
46690;BME280;32423;45.398;10.874;2023-04-09T07:29:45;101279.97;;;12.84;51.87
46690;BME280;32423;45.398;10.874;2023-04-09T07:32:37;101286.56;;;12.92;51.89
46690;BME280;32423;45.398;10.874;2023-04-09T07:35:29;101279.34;;;12.96;51.88
46690;BME280;32423;45.398;10.874;2023-04-09T07:38:21;101283.06;;;13.00;52.73
46690;BME280;32423;45.398;10.874;2023-04-09T07:41:13;101296.06;;;12.94;52.33
46690;BME280;32423;45.398;10.874;2023-04-09T07:44:05;101289.44;;;12.86;51.39
46690;BME280;32423;45.398;10.874;2023-04-09T07:46:57;101296.53;;;12.96;52.75
46690;BME280;32423;45.398;10.874;2023-04-09T07:49:49;101303.47;;;13.11;52.68
46690;BME280;32423;45.398;10.874;2023-04-09T07:52:43;101298.75;;;13.25;52.55
46690;BME280;32423;45.398;10.874;2023-04-09T07:55:33;101296.16;;;13.37;52.19
46690;BME280;32423;45.398;10.874;2023-04-09T07:58:25;101298.59;;;13.30;52.16
46690;BME280;32423;45.398;10.874;2023-04-09T08:01:17;101308.38;;;13.31;51.52
46690;BME280;32423;45.398;10.874;2023-04-09T08:04:10;101307.41;;;13.27;51.12
46690;BME280;32423;45.398;10.874;2023-04-09T08:06:59;101309.53;;;13.30;50.47
46690;BME280;32423;45.398;10.874;2023-04-09T08:09:51;101305.16;;;13.20;50.45
46690;BME280;32423;45.398;10.874;2023-04-09T08:12:43;101305.81;;;13.35;50.35
46690;BME280;32423;45.398;10.874;2023-04-09T08:15:36;101317.09;;;13.50;50.19
46690;BME280;32423;45.398;10.874;2023-04-09T08:18:28;101319.34;;;13.57;49.81
46690;BME280;32423;45.398;10.874;2023-04-09T08:21:18;101315.50;;;13.75;49.58
46690;BME280;32423;45.398;10.874;2023-04-09T08:24:07;101312.75;;;13.84;49.52
46690;BME280;32423;45.398;10.874;2023-04-09T08:27:00;101322.25;;;13.86;48.78
46690;BME280;32423;45.398;10.874;2023-04-09T08:29:52;101322.25;;;13.86;48.60
46690;BME280;32423;45.398;10.874;2023-04-09T08:32:44;101335.59;;;14.05;49.19
46690;BME280;32423;45.398;10.874;2023-04-09T08:35:36;101335.09;;;14.03;48.47
46690;BME280;32423;45.398;10.874;2023-04-09T08:38:28;101327.22;;;13.93;47.59
46690;BME280;32423;45.398;10.874;2023-04-09T08:41:20;101333.03;;;13.91;47.47
46690;BME280;32423;45.398;10.874;2023-04-09T08:44:12;101329.81;;;13.81;48.04
46690;BME280;32423;45.398;10.874;2023-04-09T08:47:05;101324.66;;;13.88;47.79
46690;BME280;32423;45.398;10.874;2023-04-09T08:49:58;101328.03;;;13.93;48.11
46690;BME280;32423;45.398;10.874;2023-04-09T08:52:47;101330.75;;;14.02;47.40
46690;BME280;32423;45.398;10.874;2023-04-09T08:55:39;101334.94;;;14.08;47.14
46690;BME280;32423;45.398;10.874;2023-04-09T08:58:31;101335.44;;;14.10;47.41
46690;BME280;32423;45.398;10.874;2023-04-09T09:01:23;101328.31;;;14.18;48.21
46690;BME280;32423;45.398;10.874;2023-04-09T09:04:13;101333.63;;;14.14;47.72
46690;BME280;32423;45.398;10.874;2023-04-09T09:07:05;101326.38;;;14.35;47.09
46690;BME280;32423;45.398;10.874;2023-04-09T09:09:56;101327.75;;;14.67;45.72
46690;BME280;32423;45.398;10.874;2023-04-09T09:12:45;101327.03;;;14.87;46.19
46690;BME280;32423;45.398;10.874;2023-04-09T09:15:35;101322.13;;;15.02;45.58
46690;BME280;32423;45.398;10.874;2023-04-09T09:18:45;101334.78;;;15.15;45.52
46690;BME280;32423;45.398;10.874;2023-04-09T09:21:37;101334.94;;;15.18;44.91
46690;BME280;32423;45.398;10.874;2023-04-09T09:24:27;101334.75;;;15.23;44.87
46690;BME280;32423;45.398;10.874;2023-04-09T09:27:37;101328.28;;;15.28;43.96
46690;BME280;32423;45.398;10.874;2023-04-09T09:30:28;101329.72;;;15.25;43.99
46690;BME280;32423;45.398;10.874;2023-04-09T09:33:17;101321.19;;;15.27;43.67
46690;BME280;32423;45.398;10.874;2023-04-09T09:36:09;101325.38;;;15.24;43.59
46690;BME280;32423;45.398;10.874;2023-04-09T09:39:01;101326.09;;;15.42;43.03
46690;BME280;32423;45.398;10.874;2023-04-09T09:42:05;101314.69;;;15.61;43.28
46690;BME280;32423;45.398;10.874;2023-04-09T09:44:57;101322.31;;;15.76;42.42
46690;BME280;32423;45.398;10.874;2023-04-09T09:47:47;101325.78;;;15.85;41.58
46690;BME280;32423;45.398;10.874;2023-04-09T09:50:37;101329.00;;;15.87;42.13
46690;BME280;32423;45.398;10.874;2023-04-09T09:53:30;101322.06;;;15.69;41.15
46690;BME280;32423;45.398;10.874;2023-04-09T09:56:23;101317.94;;;15.75;41.98
46690;BME280;32423;45.398;10.874;2023-04-09T09:59:18;101313.34;;;15.67;42.43
46690;BME280;32423;45.398;10.874;2023-04-09T10:02:15;101309.69;;;15.83;42.04
46690;BME280;32423;45.398;10.874;2023-04-09T10:05:06;101320.16;;;16.02;42.54
46690;BME280;32423;45.398;10.874;2023-04-09T10:08:00;101318.97;;;16.24;42.22
46690;BME280;32423;45.398;10.874;2023-04-09T10:10:53;101313.88;;;16.35;41.12
46690;BME280;32423;45.398;10.874;2023-04-09T10:13:45;101317.84;;;16.37;40.22
46690;BME280;32423;45.398;10.874;2023-04-09T10:16:36;101317.97;;;16.41;40.67
46690;BME280;32423;45.398;10.874;2023-04-09T10:19:26;101313.88;;;16.47;41.46
46690;BME280;32423;45.398;10.874;2023-04-09T10:22:18;101316.13;;;16.33;41.79
46690;BME280;32423;45.398;10.874;2023-04-09T10:25:11;101311.72;;;16.40;41.13
46690;BME280;32423;45.398;10.874;2023-04-09T10:28:05;101303.81;;;16.39;40.85
46690;BME280;32423;45.398;10.874;2023-04-09T10:31:02;101311.31;;;16.62;41.61
46690;BME280;32423;45.398;10.874;2023-04-09T10:33:54;101307.53;;;16.67;40.79
46690;BME280;32423;45.398;10.874;2023-04-09T10:36:54;101305.03;;;16.86;40.59
46690;BME280;32423;45.398;10.874;2023-04-09T10:39:47;101295.75;;;17.03;40.54
46690;BME280;32423;45.398;10.874;2023-04-09T10:42:38;101292.91;;;16.99;39.23
46690;BME280;32423;45.398;10.874;2023-04-09T10:45:38;101299.31;;;16.91;39.70
46690;BME280;32423;45.398;10.874;2023-04-09T10:48:31;101299.56;;;16.86;39.61
46690;BME280;32423;45.398;10.874;2023-04-09T10:51:20;101297.00;;;16.81;39.71
46690;BME280;32423;45.398;10.874;2023-04-09T10:57:16;101279.84;;;16.72;39.46
46690;BME280;32423;45.398;10.874;2023-04-09T11:00:07;101281.66;;;16.92;39.13
46690;BME280;32423;45.398;10.874;2023-04-09T11:06:03;101280.31;;;16.98;39.95
46690;BME280;32423;45.398;10.874;2023-04-09T11:09:00;101282.25;;;17.10;39.06
46690;BME280;32423;45.398;10.874;2023-04-09T11:11:53;101280.50;;;17.18;39.08
46690;BME280;32423;45.398;10.874;2023-04-09T11:14:42;101283.25;;;17.18;38.77
46690;BME280;32423;45.398;10.874;2023-04-09T11:17:34;101273.28;;;17.25;38.33
46690;BME280;32423;45.398;10.874;2023-04-09T11:20:26;101268.56;;;17.38;37.66
46690;BME280;32423;45.398;10.874;2023-04-09T11:23:19;101270.38;;;17.46;37.19
46690;BME280;32423;45.398;10.874;2023-04-09T11:26:11;101275.22;;;17.37;37.12
46690;BME280;32423;45.398;10.874;2023-04-09T11:29:06;101274.66;;;17.19;37.19
46690;BME280;32423;45.398;10.874;2023-04-09T11:32:01;101272.59;;;17.28;37.92
46690;BME280;32423;45.398;10.874;2023-04-09T11:34:53;101273.63;;;17.36;37.08
46690;BME280;32423;45.398;10.874;2023-04-09T11:37:45;101266.25;;;17.52;36.96
46690;BME280;32423;45.398;10.874;2023-04-09T11:40:35;101268.38;;;17.59;36.73
46690;BME280;32423;45.398;10.874;2023-04-09T11:43:25;101267.03;;;17.52;37.27
46690;BME280;32423;45.398;10.874;2023-04-09T11:46:17;101262.31;;;17.65;37.32
46690;BME280;32423;45.398;10.874;2023-04-09T11:49:10;101262.97;;;17.74;36.20
46690;BME280;32423;45.398;10.874;2023-04-09T11:52:02;101260.69;;;17.76;37.01
46690;BME280;32423;45.398;10.874;2023-04-09T11:54:54;101254.47;;;17.79;36.51
46690;BME280;32423;45.398;10.874;2023-04-09T11:57:49;101250.78;;;17.87;36.50
46690;BME280;32423;45.398;10.874;2023-04-09T12:00:41;101259.84;;;18.04;36.70
46690;BME280;32423;45.398;10.874;2023-04-09T12:03:33;101250.44;;;18.05;36.05
46690;BME280;32423;45.398;10.874;2023-04-09T12:06:25;101253.91;;;18.02;36.92
46690;BME280;32423;45.398;10.874;2023-04-09T12:09:15;101249.94;;;18.15;36.22
46690;BME280;32423;45.398;10.874;2023-04-09T12:12:07;101251.53;;;18.16;36.22
46690;BME280;32423;45.398;10.874;2023-04-09T12:14:59;101248.53;;;18.21;36.42
46690;BME280;32423;45.398;10.874;2023-04-09T12:17:57;101239.38;;;18.17;36.00
46690;BME280;32423;45.398;10.874;2023-04-09T12:20:49;101239.97;;;18.10;36.55
46690;BME280;32423;45.398;10.874;2023-04-09T12:23:41;101238.38;;;18.09;36.16
46690;BME280;32423;45.398;10.874;2023-04-09T12:26:33;101236.63;;;18.17;36.50
46690;BME280;32423;45.398;10.874;2023-04-09T12:29:25;101227.38;;;18.25;36.06
46690;BME280;32423;45.398;10.874;2023-04-09T12:32:17;101228.09;;;18.22;35.90
46690;BME280;32423;45.398;10.874;2023-04-09T12:35:09;101223.66;;;18.17;36.61
46690;BME280;32423;45.398;10.874;2023-04-09T12:38:01;101223.31;;;18.34;36.41
46690;BME280;32423;45.398;10.874;2023-04-09T12:40:53;101219.94;;;18.41;36.61
46690;BME280;32423;45.398;10.874;2023-04-09T12:43:45;101221.69;;;18.49;35.76
46690;BME280;32423;45.398;10.874;2023-04-09T12:46:37;101225.72;;;18.52;35.63
46690;BME280;32423;45.398;10.874;2023-04-09T12:49:29;101220.31;;;18.55;35.84
46690;BME280;32423;45.398;10.874;2023-04-09T12:52:21;101222.75;;;18.29;35.75
46690;BME280;32423;45.398;10.874;2023-04-09T12:55:13;101221.72;;;18.18;36.27
46690;BME280;32423;45.398;10.874;2023-04-09T12:58:03;101222.00;;;18.28;35.85
46690;BME280;32423;45.398;10.874;2023-04-09T13:00:49;101222.88;;;18.32;35.76
46690;BME280;32423;45.398;10.874;2023-04-09T13:03:41;101227.75;;;18.39;35.70
46690;BME280;32423;45.398;10.874;2023-04-09T13:06:33;101218.09;;;18.61;35.56
46690;BME280;32423;45.398;10.874;2023-04-09T13:09:23;101211.75;;;18.45;34.97
46690;BME280;32423;45.398;10.874;2023-04-09T13:12:12;101213.69;;;18.44;35.06
46690;BME280;32423;45.398;10.874;2023-04-09T13:15:04;101212.75;;;18.36;35.70
46690;BME280;32423;45.398;10.874;2023-04-09T13:17:56;101217.00;;;18.50;35.15
46690;BME280;32423;45.398;10.874;2023-04-09T13:20:48;101202.78;;;18.16;34.89
46690;BME280;32423;45.398;10.874;2023-04-09T13:23:40;101205.19;;;18.18;36.31
46690;BME280;32423;45.398;10.874;2023-04-09T13:26:33;101200.56;;;18.22;35.46
46690;BME280;32423;45.398;10.874;2023-04-09T13:29:22;101197.72;;;18.03;35.30
46690;BME280;32423;45.398;10.874;2023-04-09T13:32:14;101186.06;;;18.09;35.42
46690;BME280;32423;45.398;10.874;2023-04-09T13:35:06;101178.56;;;18.22;34.92
46690;BME280;32423;45.398;10.874;2023-04-09T13:37:58;101183.97;;;18.18;35.75
46690;BME280;32423;45.398;10.874;2023-04-09T13:40:50;101182.44;;;18.21;35.08
46690;BME280;32423;45.398;10.874;2023-04-09T13:43:40;101182.44;;;18.21;34.54
46690;BME280;32423;45.398;10.874;2023-04-09T13:46:29;101166.81;;;18.09;35.17
46690;BME280;32423;45.398;10.874;2023-04-09T13:49:21;101167.88;;;18.05;35.74
46690;BME280;32423;45.398;10.874;2023-04-09T13:52:11;101177.13;;;17.97;35.46
46690;BME280;32423;45.398;10.874;2023-04-09T13:55:03;101168.59;;;18.02;35.90
46690;BME280;32423;45.398;10.874;2023-04-09T13:57:55;101158.00;;;17.88;35.98
46690;BME280;32423;45.398;10.874;2023-04-09T14:00:47;101159.47;;;17.98;35.36
46690;BME280;32423;45.398;10.874;2023-04-09T14:03:34;101157.75;;;17.93;35.63
46690;BME280;32423;45.398;10.874;2023-04-09T14:06:21;101155.16;;;17.69;35.71
46690;BME280;32423;45.398;10.874;2023-04-09T14:09:11;101158.53;;;17.62;35.99
46690;BME280;32423;45.398;10.874;2023-04-09T14:12:03;101161.09;;;17.71;35.68
46690;BME280;32423;45.398;10.874;2023-04-09T14:14:52;101154.28;;;17.80;35.55
46690;BME280;32423;45.398;10.874;2023-04-09T14:17:44;101156.56;;;17.78;35.83
46690;BME280;32423;45.398;10.874;2023-04-09T14:20:36;101150.69;;;17.64;35.63
46690;BME280;32423;45.398;10.874;2023-04-09T14:23:27;101150.97;;;17.59;35.29
46690;BME280;32423;45.398;10.874;2023-04-09T14:26:19;101157.13;;;17.56;35.86
46690;BME280;32423;45.398;10.874;2023-04-09T14:29:12;101155.31;;;17.60;35.56
46690;BME280;32423;45.398;10.874;2023-04-09T14:32:04;101155.53;;;17.55;35.47
46690;BME280;32423;45.398;10.874;2023-04-09T14:34:56;101159.66;;;17.61;35.51
46690;BME280;32423;45.398;10.874;2023-04-09T14:37:48;101153.19;;;17.69;35.29
46690;BME280;32423;45.398;10.874;2023-04-09T14:40:40;101158.00;;;17.72;35.45
46690;BME280;32423;45.398;10.874;2023-04-09T14:43:29;101156.47;;;17.59;34.99
46690;BME280;32423;45.398;10.874;2023-04-09T14:46:22;101148.75;;;17.65;34.76
46690;BME280;32423;45.398;10.874;2023-04-09T14:49:14;101158.25;;;17.67;34.93
46690;BME280;32423;45.398;10.874;2023-04-09T14:52:06;101157.28;;;17.75;34.88
46690;BME280;32423;45.398;10.874;2023-04-09T14:54:57;101149.75;;;17.72;34.60
46690;BME280;32423;45.398;10.874;2023-04-09T14:57:50;101153.94;;;17.82;34.47
46690;BME280;32423;45.398;10.874;2023-04-09T15:00:42;101154.09;;;17.73;34.75
46690;BME280;32423;45.398;10.874;2023-04-09T15:03:33;101153.81;;;17.78;34.06
46690;BME280;32423;45.398;10.874;2023-04-09T15:06:25;101153.13;;;17.81;33.97
46690;BME280;32423;45.398;10.874;2023-04-09T15:09:14;101157.38;;;17.79;34.68